Divot, Texas
Current Conditions -  °F | °C
As of 6:15 AM on Friday 21 Nov 2014 (Local Time) from KCZT Reporting Station
Haze Haze  
Wind Chill: 63°   Ceiling: 300
Heat Index: 63°   Visibility: 4mi
Dew Point: 63°   Wind: 0mph
Humidity: 100%   Direction: NA
Pressure: 30.01"   Gusts: NA
Location:  28.7236°N, 99.2694°W
Report Text: KCZT 211215Z AUTO 00000KT 4SM BR OVC003 17/17 A3001 RMK AO2
Loading
Personal Weather Stations






























Interactive Weather Map New forecast layout! Learn more

10-Day Weather Forecast

Advertisements
Track Severe Weather on mobile